^^
Station Historical Data
Daily Summary for January 30, 2018 Units:  Both    English   Metric
« Previous Day
Next Day »
Daily Weekly Monthly Yearly Custom
  High: Low: Average:
Temperature: TemperatureF °F /  -17.8 °C 60.3 °F /  15.7 °C 78.6 °F /  25.9 °C
Dew Point: DewpointF °F /  -17.8 °C 17.2 °F /  -8.2 °C 31.5 °F /  -0.3 °C
Humidity: Humidity% 7% 20%
Wind Speed: WindSpeedMPHmph /  0km/h - 1.7mph /  2.7km/h
Wind Gust: WindSpeedGustMPHmph /  0km/h - -
Wind- - SSW
Pressure: PressureIn in /  0 hPa 29.51 in /  999.2 hPa -
Precipitation: 0.00 in /  0 mm    
Historical Graphs
 
 
Tabular Data for January 30, 2018
Time Temperature Dew Point Pressure Wind Wind Speed Wind Gust Humidity Rainfall Rate (Hourly) solar Conditions
TemperatureF °F /  -17.8 °C DewpointF °F /  -17.8 °C PressureInin /  0hPa Calm     Humidity% HourlyPrecipInin /  0mm SolarRadiationWatts/m^2 W/m2 Conditions
00:04 71.8 °F /  22.1 °C 30.9 °F /  -0.6 °C 29.70in /  1005.6hPa Calm     22% 0.00in /  0mm 0.0 W/m2
00:09 71.4 °F /  21.9 °C 30.6 °F /  -0.8 °C 29.70in /  1005.6hPa Calm     22% 0.00in /  0mm 0.0 W/m2
00:14 71.2 °F /  21.8 °C 31.5 °F /  -0.3 °C 29.70in /  1005.6hPa Calm     23% 0.00in /  0mm 0.0 W/m2
00:20 70.7 °F /  21.5 °C 31.1 °F /  -0.5 °C 29.70in /  1005.6hPa Calm     23% 0.00in /  0mm 0.0 W/m2
00:25 70.3 °F /  21.3 °C 30.7 °F /  -0.7 °C 29.70in /  1005.6hPa Calm     23% 0.00in /  0mm 0.0 W/m2
00:30 70.0 °F /  21.1 °C 30.6 °F /  -0.8 °C 29.70in /  1005.6hPa Calm   2.0mph /  3.2km/h 23% 0.00in /  0mm 0.0 W/m2
00:36 69.6 °F /  20.9 °C 31.3 °F /  -0.4 °C 29.70in /  1005.6hPa Calm   2.0mph /  3.2km/h 24% 0.00in /  0mm 0.0 W/m2
00:41 69.3 °F /  20.7 °C 30.9 °F /  -0.6 °C 29.70in /  1005.6hPa Calm     24% 0.00in /  0mm 0.0 W/m2
00:46 69.1 °F /  20.6 °C 30.7 °F /  -0.7 °C 29.69in /  1005.3hPa Calm   2.0mph /  3.2km/h 24% 0.00in /  0mm 0.0 W/m2
00:51 68.5 °F /  20.3 °C 31.3 °F /  -0.4 °C 29.69in /  1005.3hPa Calm   1.0mph /  1.6km/h 25% 0.00in /  0mm 0.0 W/m2
00:56 68.4 °F /  20.2 °C 31.1 °F /  -0.5 °C 29.69in /  1005.3hPa Calm     25% 0.00in /  0mm 0.0 W/m2
01:01 68.2 °F /  20.1 °C 31.1 °F /  -0.5 °C 29.69in /  1005.3hPa Calm   1.0mph /  1.6km/h 25% 0.00in /  0mm 0.0 W/m2
01:06 67.8 °F /  19.9 °C 31.6 °F /  -0.2 °C 29.69in /  1005.3hPa Calm     26% 0.00in /  0mm 0.0 W/m2
01:11 67.6 °F /  19.8 °C 31.5 °F /  -0.3 °C 29.69in /  1005.3hPa Calm   2.0mph /  3.2km/h 26% 0.00in /  0mm 0.0 W/m2
01:16 67.5 °F /  19.7 °C 31.5 °F /  -0.3 °C 29.70in /  1005.6hPa Calm   1.0mph /  1.6km/h 26% 0.00in /  0mm 0.0 W/m2
01:21 67.5 °F /  19.7 °C 31.5 °F /  -0.3 °C 29.70in /  1005.6hPa Calm   2.0mph /  3.2km/h 26% 0.00in /  0mm 0.0 W/m2
01:26 67.5 °F /  19.7 °C 31.5 °F /  -0.3 °C 29.70in /  1005.6hPa Calm   2.0mph /  3.2km/h 26% 0.00in /  0mm 0.0 W/m2
01:31 67.5 °F /  19.7 °C 31.5 °F /  -0.3 °C 29.69in /  1005.3hPa Calm   1.0mph /  1.6km/h 26% 0.00in /  0mm 0.0 W/m2
01:36 67.5 °F /  19.7 °C 31.5 °F /  -0.3 °C 29.69in /  1005.3hPa East 0.9mph /  1.4km/h 5.0mph /  8km/h 26% 0.00in /  0mm 0.0 W/m2
01:42 67.5 °F /  19.7 °C 31.5 °F /  -0.3 °C 29.69in /  1005.3hPa Calm   4.0mph /  6.4km/h 26% 0.00in /  0mm 0.0 W/m2
01:47 67.5 °F /  19.7 °C 30.4 °F /  -0.9 °C 29.70in /  1005.6hPa NE 0.9mph /  1.4km/h 4.0mph /  6.4km/h 25% 0.00in /  0mm 0.0 W/m2
01:52 67.3 °F /  19.6 °C 30.2 °F /  -1 °C 29.70in /  1005.6hPa NE 2.9mph /  4.7km/h 5.0mph /  8km/h 25% 0.00in /  0mm 0.0 W/m2
01:58 67.3 °F /  19.6 °C 30.2 °F /  -1 °C 29.69in /  1005.3hPa Calm   6.0mph /  9.7km/h 25% 0.00in /  0mm 0.0 W/m2
02:03 67.5 °F /  19.7 °C 31.5 °F /  -0.3 °C 29.70in /  1005.6hPa Calm   1.0mph /  1.6km/h 26% 0.00in /  0mm 0.0 W/m2
02:08 67.5 °F /  19.7 °C 31.5 °F /  -0.3 °C 29.69in /  1005.3hPa ENE 2.0mph /  3.2km/h 3.0mph /  4.8km/h 26% 0.00in /  0mm 0.0 W/m2
02:13 67.3 °F /  19.6 °C 31.3 °F /  -0.4 °C 29.69in /  1005.3hPa East 0.9mph /  1.4km/h 2.0mph /  3.2km/h 26% 0.00in /  0mm 0.0 W/m2
02:18 67.3 °F /  19.6 °C 31.3 °F /  -0.4 °C 29.69in /  1005.3hPa Calm   3.0mph /  4.8km/h 26% 0.00in /  0mm 0.0 W/m2
02:24 67.1 °F /  19.5 °C 31.1 °F /  -0.5 °C 29.69in /  1005.3hPa ENE 0.9mph /  1.4km/h 2.0mph /  3.2km/h 26% 0.00in /  0mm 0.0 W/m2
02:29 67.1 °F /  19.5 °C 31.1 °F /  -0.5 °C 29.69in /  1005.3hPa Calm   2.0mph /  3.2km/h 26% 0.00in /  0mm 0.0 W/m2
02:34 67.1 °F /  19.5 °C 31.1 °F /  -0.5 °C 29.69in /  1005.3hPa Calm   3.0mph /  4.8km/h 26% 0.00in /  0mm 0.0 W/m2
02:40 67.1 °F /  19.5 °C 31.1 °F /  -0.5 °C 29.69in /  1005.3hPa Calm   2.0mph /  3.2km/h 26% 0.00in /  0mm 0.0 W/m2
02:45 67.3 °F /  19.6 °C 31.3 °F /  -0.4 °C 29.69in /  1005.3hPa Calm   2.0mph /  3.2km/h 26% 0.00in /  0mm 0.0 W/m2
02:50 67.3 °F /  19.6 °C 31.3 °F /  -0.4 °C 29.70in /  1005.6hPa ENE 0.9mph /  1.4km/h 5.0mph /  8km/h 26% 0.00in /  0mm 0.0 W/m2
02:56 67.3 °F /  19.6 °C 32.2 °F /  0.1 °C 29.70in /  1005.6hPa Calm   1.0mph /  1.6km/h 27% 0.00in /  0mm 0.0 W/m2
03:01 67.3 °F /  19.6 °C 31.3 °F /  -0.4 °C 29.69in /  1005.3hPa Calm     26% 0.00in /  0mm 0.0 W/m2
03:06 66.9 °F /  19.4 °C 31.8 °F /  -0.1 °C 29.68in /  1005hPa Calm     27% 0.00in /  0mm 0.0 W/m2
03:12 66.7 °F /  19.3 °C 31.6 °F /  -0.2 °C 29.68in /  1005hPa Calm   1.0mph /  1.6km/h 27% 0.00in /  0mm 0.0 W/m2
03:17 66.6 °F /  19.2 °C 31.5 °F /  -0.3 °C 29.68in /  1005hPa Calm     27% 0.00in /  0mm 0.0 W/m2
03:22 66.6 °F /  19.2 °C 31.5 °F /  -0.3 °C 29.68in /  1005hPa Calm   1.0mph /  1.6km/h 27% 0.00in /  0mm 0.0 W/m2
03:27 66.2 °F /  19 °C 32.2 °F /  0.1 °C 29.68in /  1005hPa Calm     28% 0.00in /  0mm 0.0 W/m2
03:32 65.8 °F /  18.8 °C 31.8 °F /  -0.1 °C 29.67in /  1004.6hPa SSE 2.0mph /  3.2km/h 3.0mph /  4.8km/h 28% 0.00in /  0mm 0.0 W/m2
03:37 65.7 °F /  18.7 °C 31.6 °F /  -0.2 °C 29.67in /  1004.6hPa Calm     28% 0.00in /  0mm 0.0 W/m2
03:42 65.5 °F /  18.6 °C 32.4 °F /  0.2 °C 29.68in /  1005hPa Calm     29% 0.00in /  0mm 0.0 W/m2
03:47 65.3 °F /  18.5 °C 32.2 °F /  0.1 °C 29.68in /  1005hPa Calm     29% 0.00in /  0mm 0.0 W/m2
03:53 64.9 °F /  18.3 °C 32.0 °F /  0 °C 29.67in /  1004.6hPa Calm     29% 0.00in /  0mm 0.0 W/m2
03:58 64.8 °F /  18.2 °C 31.8 °F /  -0.1 °C 29.67in /  1004.6hPa Calm     29% 0.00in /  0mm 0.0 W/m2
04:04 64.6 °F /  18.1 °C 32.4 °F /  0.2 °C 29.67in /  1004.6hPa Calm     30% 0.00in /  0mm 0.0 W/m2
04:08 64.2 °F /  17.9 °C 32.9 °F /  0.5 °C 29.67in /  1004.6hPa Calm     31% 0.00in /  0mm 0.0 W/m2
04:13 64.0 °F /  17.8 °C 32.7 °F /  0.4 °C 29.67in /  1004.6hPa Calm     31% 0.00in /  0mm 0.0 W/m2
04:18 63.9 °F /  17.7 °C 32.7 °F /  0.4 °C 29.67in /  1004.6hPa Calm   1.0mph /  1.6km/h 31% 0.00in /  0mm 0.0 W/m2
04:23 63.7 °F /  17.6 °C 32.5 °F /  0.3 °C 29.66in /  1004.3hPa Calm   1.0mph /  1.6km/h 31% 0.00in /  0mm 0.0 W/m2
04:29 63.3 °F /  17.4 °C 31.3 °F /  -0.4 °C 29.67in /  1004.6hPa Calm     30% 0.00in /  0mm 0.0 W/m2
04:35 63.1 °F /  17.3 °C 31.3 °F /  -0.4 °C 29.66in /  1004.3hPa Calm     30% 0.00in /  0mm 0.0 W/m2
04:40 63.0 °F /  17.2 °C 31.8 °F /  -0.1 °C 29.66in /  1004.3hPa Calm   2.0mph /  3.2km/h 31% 0.00in /  0mm 0.0 W/m2
04:45 62.8 °F /  17.1 °C 31.6 °F /  -0.2 °C 29.66in /  1004.3hPa Calm     31% 0.00in /  0mm 0.0 W/m2
04:50 62.8 °F /  17.1 °C 32.5 °F /  0.3 °C 29.66in /  1004.3hPa Calm   1.0mph /  1.6km/h 32% 0.00in /  0mm 0.0 W/m2
04:55 62.6 °F /  17 °C 31.5 °F /  -0.3 °C 29.66in /  1004.3hPa Calm   1.0mph /  1.6km/h 31% 0.00in /  0mm 0.0 W/m2
05:00 62.4 °F /  16.9 °C 32.2 °F /  0.1 °C 29.66in /  1004.3hPa Calm   1.0mph /  1.6km/h 32% 0.00in /  0mm 0.0 W/m2
05:05 62.4 °F /  16.9 °C 31.5 °F /  -0.3 °C 29.66in /  1004.3hPa Calm   1.0mph /  1.6km/h 31% 0.00in /  0mm 0.0 W/m2
05:10 62.2 °F /  16.8 °C 32.0 °F /  0 °C 29.66in /  1004.3hPa Calm   1.0mph /  1.6km/h 32% 0.00in /  0mm 0.0 W/m2
05:16 62.1 °F /  16.7 °C 31.8 °F /  -0.1 °C 29.65in /  1003.9hPa Calm   1.0mph /  1.6km/h 32% 0.00in /  0mm 0.0 W/m2
05:21 62.1 °F /  16.7 °C 31.8 °F /  -0.1 °C 29.66in /  1004.3hPa Calm   1.0mph /  1.6km/h 32% 0.00in /  0mm 0.0 W/m2
05:26 61.9 °F /  16.6 °C 33.3 °F /  0.7 °C 29.66in /  1004.3hPa Calm     34% 0.00in /  0mm 0.0 W/m2
05:31 61.7 °F /  16.5 °C 33.1 °F /  0.6 °C 29.66in /  1004.3hPa Calm     34% 0.00in /  0mm 0.0 W/m2
05:36 61.5 °F /  16.4 °C 32.9 °F /  0.5 °C 29.66in /  1004.3hPa ESE 0.9mph /  1.4km/h 1.0mph /  1.6km/h 34% 0.00in /  0mm 0.0 W/m2
05:42 61.3 °F /  16.3 °C 32.0 °F /  0 °C 29.66in /  1004.3hPa Calm   1.0mph /  1.6km/h 33% 0.00in /  0mm 0.0 W/m2
05:47 61.2 °F /  16.2 °C 32.5 °F /  0.3 °C 29.66in /  1004.3hPa Calm   1.0mph /  1.6km/h 34% 0.00in /  0mm 0.0 W/m2
05:52 61.0 °F /  16.1 °C 32.4 °F /  0.2 °C 29.66in /  1004.3hPa ESE 0.9mph /  1.4km/h 2.0mph /  3.2km/h 34% 0.00in /  0mm 0.0 W/m2
05:57 61.0 °F /  16.1 °C 31.6 °F /  -0.2 °C 29.66in /  1004.3hPa Calm   2.0mph /  3.2km/h 33% 0.00in /  0mm 0.0 W/m2
06:02 61.0 °F /  16.1 °C 32.4 °F /  0.2 °C 29.66in /  1004.3hPa Calm   1.0mph /  1.6km/h 34% 0.00in /  0mm 0.0 W/m2
06:07 60.8 °F /  16 °C 32.9 °F /  0.5 °C 29.67in /  1004.6hPa Calm   2.0mph /  3.2km/h 35% 0.00in /  0mm 0.0 W/m2
06:12 60.6 °F /  15.9 °C 32.9 °F /  0.5 °C 29.66in /  1004.3hPa Calm     35% 0.00in /  0mm 0.0 W/m2
06:17 60.4 °F /  15.8 °C 32.0 °F /  0 °C 29.67in /  1004.6hPa Calm   1.0mph /  1.6km/h 34% 0.00in /  0mm 0.0 W/m2
06:22 60.3 °F /  15.7 °C 31.8 °F /  -0.1 °C 29.67in /  1004.6hPa Calm   3.0mph /  4.8km/h 34% 0.00in /  0mm 0.0 W/m2
06:27 60.3 °F /  15.7 °C 32.5 °F /  0.3 °C 29.67in /  1004.6hPa Calm   2.0mph /  3.2km/h 35% 0.00in /  0mm 0.0 W/m2
06:32 60.3 °F /  15.7 °C 31.8 °F /  -0.1 °C 29.67in /  1004.6hPa Calm   2.0mph /  3.2km/h 34% 0.00in /  0mm 0.0 W/m2
06:38 60.3 °F /  15.7 °C 32.5 °F /  0.3 °C 29.67in /  1004.6hPa Calm   1.0mph /  1.6km/h 35% 0.00in /  0mm 5.0 W/m2
06:43 60.3 °F /  15.7 °C 32.5 °F /  0.3 °C 29.67in /  1004.6hPa Calm     35% 0.00in /  0mm 9.0 W/m2
06:49 60.3 °F /  15.7 °C 31.8 °F /  -0.1 °C 29.67in /  1004.6hPa Calm   3.0mph /  4.8km/h 34% 0.00in /  0mm 11.0 W/m2
06:54 60.3 °F /  15.7 °C 32.5 °F /  0.3 °C 29.67in /  1004.6hPa East 2.0mph /  3.2km/h 4.0mph /  6.4km/h 35% 0.00in /  0mm 12.0 W/m2
06:59 60.3 °F /  15.7 °C 32.5 °F /  0.3 °C 29.67in /  1004.6hPa Calm   2.0mph /  3.2km/h 35% 0.00in /  0mm 14.0 W/m2
07:04 60.3 °F /  15.7 °C 31.8 °F /  -0.1 °C 29.67in /  1004.6hPa Calm   4.0mph /  6.4km/h 34% 0.00in /  0mm 16.0 W/m2
07:09 60.6 °F /  15.9 °C 33.4 °F /  0.8 °C 29.67in /  1004.6hPa Calm     36% 0.00in /  0mm 18.0 W/m2
07:14 60.8 °F /  16 °C 32.9 °F /  0.5 °C 29.67in /  1004.6hPa Calm   1.0mph /  1.6km/h 35% 0.00in /  0mm 19.0 W/m2
07:19 61.2 °F /  16.2 °C 33.3 °F /  0.7 °C 29.67in /  1004.6hPa Calm   1.0mph /  1.6km/h 35% 0.00in /  0mm 19.0 W/m2
07:25 61.5 °F /  16.4 °C 32.9 °F /  0.5 °C 29.67in /  1004.6hPa NNE 0.9mph /  1.4km/h 1.0mph /  1.6km/h 34% 0.00in /  0mm 21.0 W/m2
07:30 61.9 °F /  16.6 °C 33.3 °F /  0.7 °C 29.67in /  1004.6hPa Calm   1.0mph /  1.6km/h 34% 0.00in /  0mm 23.0 W/m2
07:35 62.1 °F /  16.7 °C 33.4 °F /  0.8 °C 29.68in /  1005hPa Calm   4.0mph /  6.4km/h 34% 0.00in /  0mm 25.0 W/m2
07:40 62.6 °F /  17 °C 34.5 °F /  1.4 °C 29.68in /  1005hPa Calm     35% 0.00in /  0mm 26.0 W/m2
07:45 63.0 °F /  17.2 °C 34.2 °F /  1.2 °C 29.68in /  1005hPa NE 0.9mph /  1.4km/h 1.0mph /  1.6km/h 34% 0.00in /  0mm 28.0 W/m2
07:50 63.3 °F /  17.4 °C 34.5 °F /  1.4 °C 29.68in /  1005hPa Calm     34% 0.00in /  0mm 33.0 W/m2
07:55 64.0 °F /  17.8 °C 33.6 °F /  0.9 °C 29.68in /  1005hPa Calm   1.0mph /  1.6km/h 32% 0.00in /  0mm 40.0 W/m2
08:00 64.8 °F /  18.2 °C 34.2 °F /  1.2 °C 29.68in /  1005hPa Calm     32% 0.00in /  0mm 171.0 W/m2
08:05 65.5 °F /  18.6 °C 34.0 °F /  1.1 °C 29.67in /  1004.6hPa Calm   1.0mph /  1.6km/h 31% 0.00in /  0mm 236.0 W/m2
08:10 66.2 °F /  19 °C 33.1 °F /  0.6 °C 29.68in /  1005hPa Calm     29% 0.00in /  0mm 346.0 W/m2
08:16 66.9 °F /  19.4 °C 32.7 °F /  0.4 °C 29.68in /  1005hPa Calm     28% 0.00in /  0mm 373.0 W/m2
08:21 67.8 °F /  19.9 °C 32.5 °F /  0.3 °C 29.68in /  1005hPa Calm   1.0mph /  1.6km/h 27% 0.00in /  0mm 394.0 W/m2
08:26 68.7 °F /  20.4 °C 32.4 °F /  0.2 °C 29.68in /  1005hPa Calm   1.0mph /  1.6km/h 26% 0.00in /  0mm 420.0 W/m2
08:31 70.0 °F /  21.1 °C 33.4 °F /  0.8 °C 29.68in /  1005hPa Calm   3.0mph /  4.8km/h 26% 0.00in /  0mm 438.0 W/m2
08:36 71.8 °F /  22.1 °C 33.1 °F /  0.6 °C 29.68in /  1005hPa North 0.9mph /  1.4km/h 1.0mph /  1.6km/h 24% 0.00in /  0mm 459.0 W/m2
08:41 73.8 °F /  23.2 °C 34.7 °F /  1.5 °C 29.68in /  1005hPa Calm   1.0mph /  1.6km/h 24% 0.00in /  0mm 482.0 W/m2
08:46 75.4 °F /  24.1 °C 32.7 °F /  0.4 °C 29.68in /  1005hPa Calm     21% 0.00in /  0mm 503.0 W/m2
08:51 76.3 °F /  24.6 °C 32.2 °F /  0.1 °C 29.68in /  1005hPa Calm   1.0mph /  1.6km/h 20% 0.00in /  0mm 520.0 W/m2
08:57 77.4 °F /  25.2 °C 33.1 °F /  0.6 °C 29.68in /  1005hPa Calm   2.0mph /  3.2km/h 20% 0.00in /  0mm 540.0 W/m2
09:02 78.4 °F /  25.8 °C 31.5 °F /  -0.3 °C 29.68in /  1005hPa NNW 0.9mph /  1.4km/h 3.0mph /  4.8km/h 18% 0.00in /  0mm 563.0 W/m2
09:07 79.3 °F /  26.3 °C 33.4 °F /  0.8 °C 29.68in /  1005hPa Calm   2.0mph /  3.2km/h 19% 0.00in /  0mm 578.0 W/m2
09:12 80.2 °F /  26.8 °C 32.9 °F /  0.5 °C 29.68in /  1005hPa Calm   2.0mph /  3.2km/h 18% 0.00in /  0mm 584.0 W/m2
09:17 81.1 °F /  27.3 °C 33.6 °F /  0.9 °C 29.69in /  1005.3hPa Calm   3.0mph /  4.8km/h 18% 0.00in /  0mm 608.0 W/m2
09:22 81.9 °F /  27.7 °C 34.2 °F /  1.2 °C 29.68in /  1005hPa NW 2.0mph /  3.2km/h 3.0mph /  4.8km/h 18% 0.00in /  0mm 633.0 W/m2
09:27 82.8 °F /  28.2 °C 33.4 °F /  0.8 °C 29.68in /  1005hPa South 2.0mph /  3.2km/h 5.0mph /  8km/h 17% 0.00in /  0mm 647.0 W/m2
09:32 83.1 °F /  28.4 °C 33.8 °F /  1 °C 29.68in /  1005hPa North 2.0mph /  3.2km/h 3.0mph /  4.8km/h 17% 0.00in /  0mm 671.0 W/m2
09:37 83.8 °F /  28.8 °C 32.9 °F /  0.5 °C 29.68in /  1005hPa NNE 6.9mph /  11.1km/h 7.0mph /  11.3km/h 16% 0.00in /  0mm 677.0 W/m2
09:42 84.0 °F /  28.9 °C 33.1 °F /  0.6 °C 29.68in /  1005hPa North 0.9mph /  1.4km/h 5.0mph /  8km/h 16% 0.00in /  0mm 687.0 W/m2
09:48 84.6 °F /  29.2 °C 33.4 °F /  0.8 °C 29.68in /  1005hPa NNE 0.9mph /  1.4km/h 4.0mph /  6.4km/h 16% 0.00in /  0mm 726.0 W/m2
09:53 85.3 °F /  29.6 °C 32.4 °F /  0.2 °C 29.68in /  1005hPa NNW 2.9mph /  4.7km/h 4.0mph /  6.4km/h 15% 0.00in /  0mm 744.0 W/m2
09:58 85.5 °F /  29.7 °C 30.9 °F /  -0.6 °C 29.68in /  1005hPa North 2.9mph /  4.7km/h 4.0mph /  6.4km/h 14% 0.00in /  0mm 761.0 W/m2
10:03 85.8 °F /  29.9 °C 31.1 °F /  -0.5 °C 29.68in /  1005hPa Calm   2.0mph /  3.2km/h 14% 0.00in /  0mm 779.0 W/m2
10:08 86.2 °F /  30.1 °C 31.5 °F /  -0.3 °C 29.68in /  1005hPa ESE 2.0mph /  3.2km/h 3.0mph /  4.8km/h 14% 0.00in /  0mm 789.0 W/m2
10:13 86.5 °F /  30.3 °C 31.6 °F /  -0.2 °C 29.68in /  1005hPa Calm   6.0mph /  9.7km/h 14% 0.00in /  0mm 809.0 W/m2
10:18 86.5 °F /  30.3 °C 29.8 °F /  -1.2 °C 29.68in /  1005hPa ESE 2.9mph /  4.7km/h 5.0mph /  8km/h 13% 0.00in /  0mm 823.0 W/m2
10:22 86.5 °F /  30.3 °C 29.8 °F /  -1.2 °C 29.68in /  1005hPa North 2.9mph /  4.7km/h 8.0mph /  12.9km/h 13% 0.00in /  0mm 835.0 W/m2
10:27 87.1 °F /  30.6 °C 30.2 °F /  -1 °C 29.68in /  1005hPa NNE 2.0mph /  3.2km/h 7.0mph /  11.3km/h 13% 0.00in /  0mm 847.0 W/m2
10:32 87.4 °F /  30.8 °C 30.6 °F /  -0.8 °C 29.69in /  1005.3hPa Calm   9.0mph /  14.5km/h 13% 0.00in /  0mm 867.0 W/m2
10:37 87.6 °F /  30.9 °C 30.7 °F /  -0.7 °C 29.68in /  1005hPa Calm   5.0mph /  8km/h 13% 0.00in /  0mm 872.0 W/m2
10:42 88.0 °F /  31.1 °C 28.9 °F /  -1.7 °C 29.68in /  1005hPa WNW 2.0mph /  3.2km/h 7.0mph /  11.3km/h 12% 0.00in /  0mm 888.0 W/m2
10:47 88.0 °F /  31.1 °C 28.9 °F /  -1.7 °C 29.68in /  1005hPa Calm   3.0mph /  4.8km/h 12% 0.00in /  0mm 902.0 W/m2
10:53 88.3 °F /  31.3 °C 29.3 °F /  -1.5 °C 29.68in /  1005hPa West 0.9mph /  1.4km/h 8.0mph /  12.9km/h 12% 0.00in /  0mm 916.0 W/m2
10:58 88.5 °F /  31.4 °C 31.5 °F /  -0.3 °C 29.67in /  1004.6hPa SE 6.0mph /  9.7km/h 6.0mph /  9.7km/h 13% 0.00in /  0mm 925.0 W/m2
11:03 88.2 °F /  31.2 °C 31.1 °F /  -0.5 °C 29.67in /  1004.6hPa NNE 2.0mph /  3.2km/h 7.0mph /  11.3km/h 13% 0.00in /  0mm 939.0 W/m2
11:08 88.2 °F /  31.2 °C 31.1 °F /  -0.5 °C 29.67in /  1004.6hPa North 2.0mph /  3.2km/h 8.0mph /  12.9km/h 13% 0.00in /  0mm 951.0 W/m2
11:12 88.5 °F /  31.4 °C 29.5 °F /  -1.4 °C 29.67in /  1004.6hPa East 2.9mph /  4.7km/h 7.0mph /  11.3km/h 12% 0.00in /  0mm 965.0 W/m2
11:13 88.5 °F /  31.4 °C 31.5 °F /  -0.3 °C 29.67in /  1004.6hPa ESE 6.9mph /  11.1km/h 8.0mph /  12.9km/h 13% 0.00in /  0mm 965.0 W/m2
11:19 88.9 °F /  31.6 °C 29.7 °F /  -1.3 °C 29.67in /  1004.6hPa West 6.0mph /  9.7km/h 7.0mph /  11.3km/h 12% 0.00in /  0mm 977.0 W/m2
11:24 88.0 °F /  31.1 °C 28.9 °F /  -1.7 °C 29.67in /  1004.6hPa West 6.0mph /  9.7km/h 9.0mph /  14.5km/h 12% 0.00in /  0mm 986.0 W/m2
11:29 87.6 °F /  30.9 °C 30.7 °F /  -0.7 °C 29.67in /  1004.6hPa ESE 2.0mph /  3.2km/h 6.0mph /  9.7km/h 13% 0.00in /  0mm 993.0 W/m2
11:35 88.0 °F /  31.1 °C 30.9 °F /  -0.6 °C 29.67in /  1004.6hPa SW 2.9mph /  4.7km/h 6.0mph /  9.7km/h 13% 0.00in /  0mm 1002.0 W/m2
11:40 87.4 °F /  30.8 °C 30.6 °F /  -0.8 °C 29.66in /  1004.3hPa Calm   2.0mph /  3.2km/h 13% 0.00in /  0mm 1009.0 W/m2
11:45 87.4 °F /  30.8 °C 30.6 °F /  -0.8 °C 29.66in /  1004.3hPa West 4.9mph /  7.9km/h 5.0mph /  8km/h 13% 0.00in /  0mm 1016.0 W/m2
11:50 88.2 °F /  31.2 °C 31.1 °F /  -0.5 °C 29.66in /  1004.3hPa SW 0.9mph /  1.4km/h 2.0mph /  3.2km/h 13% 0.00in /  0mm 1023.0 W/m2
11:55 88.5 °F /  31.4 °C 31.5 °F /  -0.3 °C 29.66in /  1004.3hPa SSW 0.9mph /  1.4km/h 5.0mph /  8km/h 13% 0.00in /  0mm 1032.0 W/m2
12:00 88.3 °F /  31.3 °C 31.3 °F /  -0.4 °C 29.65in /  1003.9hPa SSW 6.9mph /  11.1km/h 8.0mph /  12.9km/h 13% 0.00in /  0mm 1037.0 W/m2
12:05 88.3 °F /  31.3 °C 33.1 °F /  0.6 °C 29.65in /  1003.9hPa South 4.9mph /  7.9km/h 8.0mph /  12.9km/h 14% 0.00in /  0mm 1039.0 W/m2
12:10 88.3 °F /  31.3 °C 31.3 °F /  -0.4 °C 29.65in /  1003.9hPa SSE 2.9mph /  4.7km/h 6.0mph /  9.7km/h 13% 0.00in /  0mm 1046.0 W/m2
12:15 88.9 °F /  31.6 °C 31.6 °F /  -0.2 °C 29.65in /  1003.9hPa ESE 4.0mph /  6.4km/h 9.0mph /  14.5km/h 13% 0.00in /  0mm 1049.0 W/m2
12:20 89.2 °F /  31.8 °C 30.0 °F /  -1.1 °C 29.65in /  1003.9hPa SW 0.9mph /  1.4km/h 6.0mph /  9.7km/h 12% 0.00in /  0mm 1053.0 W/m2
12:26 89.1 °F /  31.7 °C 31.8 °F /  -0.1 °C 29.65in /  1003.9hPa SW 6.0mph /  9.7km/h 6.0mph /  9.7km/h 13% 0.00in /  0mm 1053.0 W/m2
12:31 89.2 °F /  31.8 °C 32.0 °F /  0 °C 29.65in /  1003.9hPa SW 4.0mph /  6.4km/h 10.0mph /  16.1km/h 13% 0.00in /  0mm 1060.0 W/m2
12:36 89.8 °F /  32.1 °C 30.4 °F /  -0.9 °C 29.65in /  1003.9hPa North 2.9mph /  4.7km/h 6.0mph /  9.7km/h 12% 0.00in /  0mm 1062.0 W/m2
12:41 90.3 °F /  32.4 °C 32.9 °F /  0.5 °C 29.64in /  1003.6hPa West 0.9mph /  1.4km/h 9.0mph /  14.5km/h 13% 0.00in /  0mm 1063.0 W/m2
12:46 91.0 °F /  32.8 °C 33.4 °F /  0.8 °C 29.64in /  1003.6hPa West 2.9mph /  4.7km/h 4.0mph /  6.4km/h 13% 0.00in /  0mm 1063.0 W/m2
12:51 91.6 °F /  33.1 °C 31.8 °F /  -0.1 °C 29.64in /  1003.6hPa Calm   5.0mph /  8km/h 12% 0.00in /  0mm 1069.0 W/m2
12:56 91.9 °F /  33.3 °C 32.0 °F /  0 °C 29.63in /  1003.3hPa Calm   1.0mph /  1.6km/h 12% 0.00in /  0mm 1065.0 W/m2
13:01 92.7 °F /  33.7 °C 32.7 °F /  0.4 °C 29.63in /  1003.3hPa WSW 4.0mph /  6.4km/h 8.0mph /  12.9km/h 12% 0.00in /  0mm 1067.0 W/m2
13:07 92.7 °F /  33.7 °C 30.6 °F /  -0.8 °C 29.63in /  1003.3hPa NNW 2.0mph /  3.2km/h 5.0mph /  8km/h 11% 0.00in /  0mm 1065.0 W/m2
13:12 92.3 °F /  33.5 °C 32.4 °F /  0.2 °C 29.63in /  1003.3hPa WSW 2.9mph /  4.7km/h 10.0mph /  16.1km/h 12% 0.00in /  0mm 1062.0 W/m2
13:18 91.9 °F /  33.3 °C 32.0 °F /  0 °C 29.63in /  1003.3hPa North 0.9mph /  1.4km/h 3.0mph /  4.8km/h 12% 0.00in /  0mm 1067.0 W/m2
13:23 92.1 °F /  33.4 °C 32.2 °F /  0.1 °C 29.62in /  1002.9hPa WSW 0.9mph /  1.4km/h 5.0mph /  8km/h 12% 0.00in /  0mm 1065.0 W/m2
13:28 92.1 °F /  33.4 °C 32.2 °F /  0.1 °C 29.62in /  1002.9hPa WSW 4.0mph /  6.4km/h 7.0mph /  11.3km/h 12% 0.00in /  0mm 1063.0 W/m2
13:33 92.3 °F /  33.5 °C 32.4 °F /  0.2 °C 29.62in /  1002.9hPa Calm   3.0mph /  4.8km/h 12% 0.00in /  0mm 1055.0 W/m2
13:38 92.8 °F /  33.8 °C 32.7 °F /  0.4 °C 29.62in /  1002.9hPa WNW 2.9mph /  4.7km/h 7.0mph /  11.3km/h 12% 0.00in /  0mm 1055.0 W/m2
13:43 93.0 °F /  33.9 °C 32.9 °F /  0.5 °C 29.62in /  1002.9hPa NNW 4.0mph /  6.4km/h 7.0mph /  11.3km/h 12% 0.00in /  0mm 1048.0 W/m2
13:48 93.7 °F /  34.3 °C 33.4 °F /  0.8 °C 29.61in /  1002.6hPa NW 6.9mph /  11.1km/h 11.0mph /  17.7km/h 12% 0.00in /  0mm 1042.0 W/m2
13:54 94.1 °F /  34.5 °C 31.6 °F /  -0.2 °C 29.61in /  1002.6hPa NNW 4.9mph /  7.9km/h 12.0mph /  19.3km/h 11% 0.00in /  0mm 1037.0 W/m2
13:59 93.9 °F /  34.4 °C 31.5 °F /  -0.3 °C 29.61in /  1002.6hPa NNW 6.0mph /  9.7km/h 9.0mph /  14.5km/h 11% 0.00in /  0mm 1030.0 W/m2
14:04 93.9 °F /  34.4 °C 31.5 °F /  -0.3 °C 29.61in /  1002.6hPa North 2.0mph /  3.2km/h 5.0mph /  8km/h 11% 0.00in /  0mm 1025.0 W/m2
14:09 94.3 °F /  34.6 °C 31.6 °F /  -0.2 °C 29.61in /  1002.6hPa WNW 9.0mph /  14.5km/h 9.0mph /  14.5km/h 11% 0.00in /  0mm 1023.0 W/m2
14:14 94.3 °F /  34.6 °C 31.6 °F /  -0.2 °C 29.60in /  1002.3hPa Calm   1.0mph /  1.6km/h 11% 0.00in /  0mm 1018.0 W/m2
14:19 94.8 °F /  34.9 °C 32.2 °F /  0.1 °C 29.60in /  1002.3hPa North 4.0mph /  6.4km/h 7.0mph /  11.3km/h 11% 0.00in /  0mm 1007.0 W/m2
14:24 95.4 °F /  35.2 °C 32.5 °F /  0.3 °C 29.60in /  1002.3hPa West 2.9mph /  4.7km/h 8.0mph /  12.9km/h 11% 0.00in /  0mm 1002.0 W/m2
14:29 95.5 °F /  35.3 °C 32.7 °F /  0.4 °C 29.59in /  1001.9hPa WSW 2.0mph /  3.2km/h 5.0mph /  8km/h 11% 0.00in /  0mm 960.0 W/m2
14:35 94.8 °F /  34.9 °C 32.2 °F /  0.1 °C 29.59in /  1001.9hPa West 8.1mph /  13km/h 8.1mph /  13km/h 11% 0.00in /  0mm 1018.0 W/m2
14:40 94.5 °F /  34.7 °C 31.8 °F /  -0.1 °C 29.59in /  1001.9hPa SW 2.0mph /  3.2km/h 6.0mph /  9.7km/h 11% 0.00in /  0mm 990.0 W/m2
14:45 94.1 °F /  34.5 °C 31.6 °F /  -0.2 °C 29.59in /  1001.9hPa South 6.0mph /  9.7km/h 8.0mph /  12.9km/h 11% 0.00in /  0mm 988.0 W/m2
14:50 94.3 °F /  34.6 °C 31.6 °F /  -0.2 °C 29.59in /  1001.9hPa ESE 2.0mph /  3.2km/h 7.0mph /  11.3km/h 11% 0.00in /  0mm 1020.0 W/m2
14:55 94.6 °F /  34.8 °C 32.0 °F /  0 °C 29.58in /  1001.6hPa ESE 4.0mph /  6.4km/h 6.0mph /  9.7km/h 11% 0.00in /  0mm 1055.0 W/m2
15:00 95.0 °F /  35 °C 32.2 °F /  0.1 °C 29.58in /  1001.6hPa Calm   6.0mph /  9.7km/h 11% 0.00in /  0mm 1020.0 W/m2
15:05 95.2 °F /  35.1 °C 32.4 °F /  0.2 °C 29.57in /  1001.2hPa WNW 2.9mph /  4.7km/h 7.0mph /  11.3km/h 11% 0.00in /  0mm 1035.0 W/m2
15:10 95.7 °F /  35.4 °C 32.9 °F /  0.5 °C 29.57in /  1001.2hPa WNW 4.0mph /  6.4km/h 7.0mph /  11.3km/h 11% 0.00in /  0mm 1018.0 W/m2
15:15 95.5 °F /  35.3 °C 32.7 °F /  0.4 °C 29.57in /  1001.2hPa West 6.9mph /  11.1km/h 11.0mph /  17.7km/h 11% 0.00in /  0mm 221.0 W/m2
15:20 94.5 °F /  34.7 °C 34.0 °F /  1.1 °C 29.57in /  1001.2hPa WNW 2.0mph /  3.2km/h 5.0mph /  8km/h 12% 0.00in /  0mm 657.0 W/m2
15:26 94.1 °F /  34.5 °C 33.8 °F /  1 °C 29.57in /  1001.2hPa WNW 2.0mph /  3.2km/h 5.0mph /  8km/h 12% 0.00in /  0mm 318.0 W/m2
15:31 93.7 °F /  34.3 °C 33.4 °F /  0.8 °C 29.56in /  1000.9hPa SSE 4.9mph /  7.9km/h 6.0mph /  9.7km/h 12% 0.00in /  0mm 327.0 W/m2
15:36 93.6 °F /  34.2 °C 33.3 °F /  0.7 °C 29.56in /  1000.9hPa Calm   2.0mph /  3.2km/h 12% 0.00in /  0mm 294.0 W/m2
15:41 93.4 °F /  34.1 °C 33.3 °F /  0.7 °C 29.56in /  1000.9hPa WNW 4.0mph /  6.4km/h 7.0mph /  11.3km/h 12% 0.00in /  0mm 345.0 W/m2
15:46 93.0 °F /  33.9 °C 32.9 °F /  0.5 °C 29.55in /  1000.6hPa West 0.9mph /  1.4km/h 10.0mph /  16.1km/h 12% 0.00in /  0mm 448.0 W/m2
15:51 93.2 °F /  34 °C 33.1 °F /  0.6 °C 29.55in /  1000.6hPa North 2.0mph /  3.2km/h 3.0mph /  4.8km/h 12% 0.00in /  0mm 283.0 W/m2
15:56 93.7 °F /  34.3 °C 33.4 °F /  0.8 °C 29.55in /  1000.6hPa WSW 2.0mph /  3.2km/h 6.0mph /  9.7km/h 12% 0.00in /  0mm 415.0 W/m2
16:01 93.9 °F /  34.4 °C 33.6 °F /  0.9 °C 29.54in /  1000.2hPa WSW 2.0mph /  3.2km/h 8.0mph /  12.9km/h 12% 0.00in /  0mm 209.0 W/m2
16:06 93.9 °F /  34.4 °C 33.6 °F /  0.9 °C 29.55in /  1000.6hPa WNW 2.0mph /  3.2km/h 5.0mph /  8km/h 12% 0.00in /  0mm 272.0 W/m2
16:12 93.7 °F /  34.3 °C 33.4 °F /  0.8 °C 29.54in /  1000.2hPa WSW 2.0mph /  3.2km/h 5.0mph /  8km/h 12% 0.00in /  0mm 220.0 W/m2
16:18 93.7 °F /  34.3 °C 33.4 °F /  0.8 °C 29.54in /  1000.2hPa SSE 2.0mph /  3.2km/h 3.0mph /  4.8km/h 12% 0.00in /  0mm 893.0 W/m2
16:23 94.6 °F /  34.8 °C 32.0 °F /  0 °C 29.54in /  1000.2hPa West 4.9mph /  7.9km/h 5.0mph /  8km/h 11% 0.00in /  0mm 891.0 W/m2
16:28 94.6 °F /  34.8 °C 32.0 °F /  0 °C 29.54in /  1000.2hPa NNE 0.9mph /  1.4km/h 5.0mph /  8km/h 11% 0.00in /  0mm 264.0 W/m2
16:33 94.3 °F /  34.6 °C 31.6 °F /  -0.2 °C 29.54in /  1000.2hPa Calm   3.0mph /  4.8km/h 11% 0.00in /  0mm 758.0 W/m2
16:38 94.6 °F /  34.8 °C 34.2 °F /  1.2 °C 29.53in /  999.9hPa SSE 4.9mph /  7.9km/h 5.0mph /  8km/h 12% 0.00in /  0mm 817.0 W/m2
16:43 95.2 °F /  35.1 °C 32.4 °F /  0.2 °C 29.53in /  999.9hPa SW 0.9mph /  1.4km/h 3.0mph /  4.8km/h 11% 0.00in /  0mm 243.0 W/m2
16:48 94.8 °F /  34.9 °C 32.2 °F /  0.1 °C 29.53in /  999.9hPa West 2.0mph /  3.2km/h 4.0mph /  6.4km/h 11% 0.00in /  0mm 577.0 W/m2
16:53 95.2 °F /  35.1 °C 32.4 °F /  0.2 °C 29.53in /  999.9hPa West 2.9mph /  4.7km/h 8.0mph /  12.9km/h 11% 0.00in /  0mm 248.0 W/m2
16:58 95.0 °F /  35 °C 32.2 °F /  0.1 °C 29.53in /  999.9hPa West 4.9mph /  7.9km/h 6.0mph /  9.7km/h 11% 0.00in /  0mm 401.0 W/m2
17:03 95.2 °F /  35.1 °C 32.4 °F /  0.2 °C 29.53in /  999.9hPa East 0.9mph /  1.4km/h 1.0mph /  1.6km/h 11% 0.00in /  0mm 675.0 W/m2
17:09 95.5 °F /  35.3 °C 32.7 °F /  0.4 °C 29.52in /  999.5hPa SW 2.0mph /  3.2km/h 4.0mph /  6.4km/h 11% 0.00in /  0mm 146.0 W/m2
17:14 94.8 °F /  34.9 °C 32.2 °F /  0.1 °C 29.52in /  999.5hPa Calm   7.0mph /  11.3km/h 11% 0.00in /  0mm 148.0 W/m2
17:19 93.7 °F /  34.3 °C 31.3 °F /  -0.4 °C 29.52in /  999.5hPa WSW 2.0mph /  3.2km/h 6.0mph /  9.7km/h 11% 0.00in /  0mm 137.0 W/m2
17:24 92.8 °F /  33.8 °C 32.7 °F /  0.4 °C 29.52in /  999.5hPa Calm   3.0mph /  4.8km/h 12% 0.00in /  0mm 125.0 W/m2
17:29 92.5 °F /  33.6 °C 32.5 °F /  0.3 °C 29.52in /  999.5hPa West 0.9mph /  1.4km/h 2.0mph /  3.2km/h 12% 0.00in /  0mm 350.0 W/m2
17:35 92.8 °F /  33.8 °C 30.6 °F /  -0.8 °C 29.52in /  999.5hPa Calm   3.0mph /  4.8km/h 11% 0.00in /  0mm 534.0 W/m2
17:40 93.6 °F /  34.2 °C 28.8 °F /  -1.8 °C 29.52in /  999.5hPa SW 2.0mph /  3.2km/h 6.0mph /  9.7km/h 10% 0.00in /  0mm 489.0 W/m2
17:45 94.1 °F /  34.5 °C 29.3 °F /  -1.5 °C 29.52in /  999.5hPa Calm   6.0mph /  9.7km/h 10% 0.00in /  0mm 441.0 W/m2
17:50 94.5 °F /  34.7 °C 29.5 °F /  -1.4 °C 29.51in /  999.2hPa South 2.9mph /  4.7km/h 4.0mph /  6.4km/h 10% 0.00in /  0mm 401.0 W/m2
17:55 94.5 °F /  34.7 °C 24.1 °F /  -4.4 °C 29.52in /  999.5hPa WSW 11.0mph /  17.7km/h 11.0mph /  17.7km/h 8% 0.00in /  0mm 378.0 W/m2
18:01 93.7 °F /  34.3 °C 20.5 °F /  -6.4 °C 29.52in /  999.5hPa West 11.0mph /  17.7km/h 16.0mph /  25.7km/h 7% 0.00in /  0mm 352.0 W/m2
18:06 93.0 °F /  33.9 °C 19.9 °F /  -6.7 °C 29.52in /  999.5hPa SW 6.0mph /  9.7km/h 15.0mph /  24.1km/h 7% 0.00in /  0mm 323.0 W/m2
18:11 92.3 °F /  33.5 °C 19.4 °F /  -7 °C 29.52in /  999.5hPa West 6.9mph /  11.1km/h 11.0mph /  17.7km/h 7% 0.00in /  0mm 306.0 W/m2
18:16 91.6 °F /  33.1 °C 18.9 °F /  -7.3 °C 29.53in /  999.9hPa WSW 2.0mph /  3.2km/h 15.0mph /  24.1km/h 7% 0.00in /  0mm 283.0 W/m2
18:21 91.6 °F /  33.1 °C 18.9 °F /  -7.3 °C 29.53in /  999.9hPa WSW 6.9mph /  11.1km/h 13.0mph /  20.9km/h 7% 0.00in /  0mm 258.0 W/m2
18:26 91.2 °F /  32.9 °C 18.5 °F /  -7.5 °C 29.54in /  1000.2hPa SSW 10.1mph /  16.3km/h 13.0mph /  20.9km/h 7% 0.00in /  0mm 237.0 W/m2
18:31 90.5 °F /  32.5 °C 18.1 °F /  -7.7 °C 29.54in /  1000.2hPa WSW 4.9mph /  7.9km/h 12.0mph /  19.3km/h 7% 0.00in /  0mm 216.0 W/m2
18:36 90.0 °F /  32.2 °C 17.6 °F /  -8 °C 29.54in /  1000.2hPa WSW 4.0mph /  6.4km/h 10.0mph /  16.1km/h 7% 0.00in /  0mm 197.0 W/m2
18:42 89.8 °F /  32.1 °C 20.7 °F /  -6.3 °C 29.54in /  1000.2hPa SW 10.1mph /  16.3km/h 10.1mph /  16.3km/h 8% 0.00in /  0mm 179.0 W/m2
18:47 89.4 °F /  31.9 °C 17.2 °F /  -8.2 °C 29.54in /  1000.2hPa SW 2.0mph /  3.2km/h 9.0mph /  14.5km/h 7% 0.00in /  0mm 155.0 W/m2
18:52 88.9 °F /  31.6 °C 19.9 °F /  -6.7 °C 29.54in /  1000.2hPa West 8.9mph /  14.3km/h 11.0mph /  17.7km/h 8% 0.00in /  0mm 70.0 W/m2
18:57 88.2 °F /  31.2 °C 19.4 °F /  -7 °C 29.55in /  1000.6hPa West 6.0mph /  9.7km/h 9.0mph /  14.5km/h 8% 0.00in /  0mm 39.0 W/m2
19:02 87.4 °F /  30.8 °C 21.7 °F /  -5.7 °C 29.56in /  1000.9hPa SSE 6.9mph /  11.1km/h 19.0mph /  30.6km/h 9% 0.00in /  0mm 39.0 W/m2
19:07 86.7 °F /  30.4 °C 23.7 °F /  -4.6 °C 29.56in /  1000.9hPa SW 8.1mph /  13km/h 14.0mph /  22.5km/h 10% 0.00in /  0mm 26.0 W/m2
19:12 86.2 °F /  30.1 °C 25.5 °F /  -3.6 °C 29.56in /  1000.9hPa West 6.0mph /  9.7km/h 13.0mph /  20.9km/h 11% 0.00in /  0mm 23.0 W/m2
19:17 85.6 °F /  29.8 °C 25.2 °F /  -3.8 °C 29.57in /  1001.2hPa South 2.0mph /  3.2km/h 7.0mph /  11.3km/h 11% 0.00in /  0mm 18.0 W/m2
19:22 85.1 °F /  29.5 °C 26.8 °F /  -2.9 °C 29.57in /  1001.2hPa SSW 6.0mph /  9.7km/h 11.0mph /  17.7km/h 12% 0.00in /  0mm 12.0 W/m2
19:27 84.4 °F /  29.1 °C 28.2 °F /  -2.1 °C 29.57in /  1001.2hPa SSW 2.9mph /  4.7km/h 8.0mph /  12.9km/h 13% 0.00in /  0mm 11.0 W/m2
19:33 83.8 °F /  28.8 °C 27.7 °F /  -2.4 °C 29.57in /  1001.2hPa SSW 4.9mph /  7.9km/h 7.0mph /  11.3km/h 13% 0.00in /  0mm 7.0 W/m2
19:38 83.5 °F /  28.6 °C 27.5 °F /  -2.5 °C 29.58in /  1001.6hPa WSW 2.9mph /  4.7km/h 5.0mph /  8km/h 13% 0.00in /  0mm 5.0 W/m2
19:43 82.9 °F /  28.3 °C 28.8 °F /  -1.8 °C 29.58in /  1001.6hPa WSW 0.9mph /  1.4km/h 8.0mph /  12.9km/h 14% 0.00in /  0mm 0.0 W/m2
19:48 82.8 °F /  28.2 °C 28.8 °F /  -1.8 °C 29.58in /  1001.6hPa SW 4.0mph /  6.4km/h 7.0mph /  11.3km/h 14% 0.00in /  0mm 0.0 W/m2
19:53 82.6 °F /  28.1 °C 30.2 °F /  -1 °C 29.59in /  1001.9hPa SW 2.9mph /  4.7km/h 6.0mph /  9.7km/h 15% 0.00in /  0mm 0.0 W/m2
19:58 82.2 °F /  27.9 °C 31.6 °F /  -0.2 °C 29.59in /  1001.9hPa WSW 4.0mph /  6.4km/h 9.0mph /  14.5km/h 16% 0.00in /  0mm 0.0 W/m2
20:03 81.9 °F /  27.7 °C 31.3 °F /  -0.4 °C 29.58in /  1001.6hPa Calm   9.0mph /  14.5km/h 16% 0.00in /  0mm 0.0 W/m2
20:08 81.5 °F /  27.5 °C 32.5 °F /  0.3 °C 29.59in /  1001.9hPa West 2.9mph /  4.7km/h 5.0mph /  8km/h 17% 0.00in /  0mm 0.0 W/m2
20:13 81.1 °F /  27.3 °C 33.6 °F /  0.9 °C 29.59in /  1001.9hPa WSW 0.9mph /  1.4km/h 7.0mph /  11.3km/h 18% 0.00in /  0mm 0.0 W/m2
20:19 80.8 °F /  27.1 °C 33.3 °F /  0.7 °C 29.59in /  1001.9hPa Calm   2.0mph /  3.2km/h 18% 0.00in /  0mm 0.0 W/m2
20:24 80.4 °F /  26.9 °C 33.1 °F /  0.6 °C 29.59in /  1001.9hPa WSW 2.9mph /  4.7km/h 7.0mph /  11.3km/h 18% 0.00in /  0mm 0.0 W/m2
20:29 80.1 °F /  26.7 °C 34.2 °F /  1.2 °C 29.59in /  1001.9hPa SW 2.0mph /  3.2km/h 7.0mph /  11.3km/h 19% 0.00in /  0mm 0.0 W/m2
20:34 79.9 °F /  26.6 °C 34.0 °F /  1.1 °C 29.60in /  1002.3hPa SSW 0.9mph /  1.4km/h 1.0mph /  1.6km/h 19% 0.00in /  0mm 0.0 W/m2
20:39 79.5 °F /  26.4 °C 33.6 °F /  0.9 °C 29.60in /  1002.3hPa Calm   1.0mph /  1.6km/h 19% 0.00in /  0mm 0.0 W/m2
20:44 79.3 °F /  26.3 °C 33.4 °F /  0.8 °C 29.60in /  1002.3hPa Calm   5.0mph /  8km/h 19% 0.00in /  0mm 0.0 W/m2
20:49 79.2 °F /  26.2 °C 34.7 °F /  1.5 °C 29.60in /  1002.3hPa SSW 2.9mph /  4.7km/h 3.0mph /  4.8km/h 20% 0.00in /  0mm 0.0 W/m2
20:54 79.0 °F /  26.1 °C 34.5 °F /  1.4 °C 29.60in /  1002.3hPa SSW 2.0mph /  3.2km/h 6.0mph /  9.7km/h 20% 0.00in /  0mm 0.0 W/m2
21:00 78.6 °F /  25.9 °C 34.2 °F /  1.2 °C 29.60in /  1002.3hPa WSW 0.9mph /  1.4km/h 3.0mph /  4.8km/h 20% 0.00in /  0mm 0.0 W/m2
21:05 78.4 °F /  25.8 °C 35.2 °F /  1.8 °C 29.60in /  1002.3hPa Calm   1.0mph /  1.6km/h 21% 0.00in /  0mm 0.0 W/m2
21:10 78.3 °F /  25.7 °C 35.1 °F /  1.7 °C 29.60in /  1002.3hPa West 2.0mph /  3.2km/h 5.0mph /  8km/h 21% 0.00in /  0mm 0.0 W/m2
21:15 78.1 °F /  25.6 °C 34.9 °F /  1.6 °C 29.60in /  1002.3hPa Calm   6.0mph /  9.7km/h 21% 0.00in /  0mm 0.0 W/m2
21:20 77.7 °F /  25.4 °C 34.7 °F /  1.5 °C 29.60in /  1002.3hPa SW 0.9mph /  1.4km/h 5.0mph /  8km/h 21% 0.00in /  0mm 0.0 W/m2
21:25 77.5 °F /  25.3 °C 34.5 °F /  1.4 °C 29.60in /  1002.3hPa West 0.9mph /  1.4km/h 6.0mph /  9.7km/h 21% 0.00in /  0mm 0.0 W/m2
21:30 77.4 °F /  25.2 °C 34.3 °F /  1.3 °C 29.61in /  1002.6hPa Calm   1.0mph /  1.6km/h 21% 0.00in /  0mm 0.0 W/m2
21:35 77.4 °F /  25.2 °C 34.3 °F /  1.3 °C 29.61in /  1002.6hPa Calm   2.0mph /  3.2km/h 21% 0.00in /  0mm 0.0 W/m2
21:40 77.2 °F /  25.1 °C 34.2 °F /  1.2 °C 29.61in /  1002.6hPa SSE 4.0mph /  6.4km/h 4.0mph /  6.4km/h 21% 0.00in /  0mm 0.0 W/m2
21:46 77.0 °F /  25 °C 34.2 °F /  1.2 °C 29.61in /  1002.6hPa WSW 2.0mph /  3.2km/h 5.0mph /  8km/h 21% 0.00in /  0mm 0.0 W/m2
21:51 76.8 °F /  24.9 °C 34.0 °F /  1.1 °C 29.61in /  1002.6hPa Calm   1.0mph /  1.6km/h 21% 0.00in /  0mm 0.0 W/m2
21:56 76.8 °F /  24.9 °C 35.1 °F /  1.7 °C 29.61in /  1002.6hPa Calm   1.0mph /  1.6km/h 22% 0.00in /  0mm 0.0 W/m2
22:01 76.5 °F /  24.7 °C 34.9 °F /  1.6 °C 29.62in /  1002.9hPa SSW 0.9mph /  1.4km/h 2.0mph /  3.2km/h 22% 0.00in /  0mm 0.0 W/m2
22:06 76.5 °F /  24.7 °C 34.9 °F /  1.6 °C 29.62in /  1002.9hPa SW 2.0mph /  3.2km/h 8.0mph /  12.9km/h 22% 0.00in /  0mm 0.0 W/m2
22:11 76.6 °F /  24.8 °C 34.9 °F /  1.6 °C 29.62in /  1002.9hPa SSE 2.9mph /  4.7km/h 11.0mph /  17.7km/h 22% 0.00in /  0mm 0.0 W/m2
22:16 76.8 °F /  24.9 °C 34.0 °F /  1.1 °C 29.62in /  1002.9hPa SW 0.9mph /  1.4km/h 5.0mph /  8km/h 21% 0.00in /  0mm 0.0 W/m2
22:21 76.8 °F /  24.9 °C 34.0 °F /  1.1 °C 29.62in /  1002.9hPa West 2.0mph /  3.2km/h 5.0mph /  8km/h 21% 0.00in /  0mm 0.0 W/m2
22:26 77.0 °F /  25 °C 34.2 °F /  1.2 °C 29.62in /  1002.9hPa West 4.9mph /  7.9km/h 5.0mph /  8km/h 21% 0.00in /  0mm 0.0 W/m2
22:32 77.0 °F /  25 °C 34.2 °F /  1.2 °C 29.62in /  1002.9hPa Calm   6.0mph /  9.7km/h 21% 0.00in /  0mm 0.0 W/m2
22:37 77.0 °F /  25 °C 34.2 °F /  1.2 °C 29.63in /  1003.3hPa South 2.0mph /  3.2km/h 2.0mph /  3.2km/h 21% 0.00in /  0mm 0.0 W/m2
22:42 76.8 °F /  24.9 °C 35.1 °F /  1.7 °C 29.62in /  1002.9hPa SE 0.9mph /  1.4km/h 2.0mph /  3.2km/h 22% 0.00in /  0mm 0.0 W/m2
22:47 76.8 °F /  24.9 °C 35.1 °F /  1.7 °C 29.63in /  1003.3hPa Calm   1.0mph /  1.6km/h 22% 0.00in /  0mm 0.0 W/m2
22:50 76.6 °F /  24.8 °C 34.9 °F /  1.6 °C 29.63in /  1003.3hPa SE 0.9mph /  1.4km/h 2.0mph /  3.2km/h 22% 0.00in /  0mm 0.0 W/m2
22:55 76.5 °F /  24.7 °C 34.9 °F /  1.6 °C 29.63in /  1003.3hPa SW 2.0mph /  3.2km/h 2.0mph /  3.2km/h 22% 0.00in /  0mm 0.0 W/m2
23:00 76.3 °F /  24.6 °C 35.8 °F /  2.1 °C 29.63in /  1003.3hPa Calm   1.0mph /  1.6km/h 23% 0.00in /  0mm 0.0 W/m2
23:05 76.1 °F /  24.5 °C 34.5 °F /  1.4 °C 29.63in /  1003.3hPa ESE 2.0mph /  3.2km/h 3.0mph /  4.8km/h 22% 0.00in /  0mm 0.0 W/m2
23:10 75.7 °F /  24.3 °C 34.2 °F /  1.2 °C 29.63in /  1003.3hPa SSE 2.0mph /  3.2km/h 3.0mph /  4.8km/h 22% 0.00in /  0mm 0.0 W/m2
23:15 75.6 °F /  24.2 °C 34.0 °F /  1.1 °C 29.63in /  1003.3hPa Calm   4.0mph /  6.4km/h 22% 0.00in /  0mm 0.0 W/m2
23:20 75.4 °F /  24.1 °C 35.1 °F /  1.7 °C 29.63in /  1003.3hPa SSE 2.9mph /  4.7km/h 4.0mph /  6.4km/h 23% 0.00in /  0mm 0.0 W/m2
23:25 75.0 °F /  23.9 °C 34.7 °F /  1.5 °C 29.63in /  1003.3hPa South 0.9mph /  1.4km/h 6.0mph /  9.7km/h 23% 0.00in /  0mm 0.0 W/m2
23:30 74.8 °F /  23.8 °C 34.5 °F /  1.4 °C 29.63in /  1003.3hPa SSE 4.0mph /  6.4km/h 9.0mph /  14.5km/h 23% 0.00in /  0mm 0.0 W/m2
23:36 74.7 °F /  23.7 °C 34.3 °F /  1.3 °C 29.63in /  1003.3hPa South 2.0mph /  3.2km/h 4.0mph /  6.4km/h 23% 0.00in /  0mm 0.0 W/m2
23:41 74.7 °F /  23.7 °C 34.3 °F /  1.3 °C 29.63in /  1003.3hPa Calm   2.0mph /  3.2km/h 23% 0.00in /  0mm 0.0 W/m2
23:46 74.5 °F /  23.6 °C 34.3 °F /  1.3 °C 29.63in /  1003.3hPa Calm   2.0mph /  3.2km/h 23% 0.00in /  0mm 0.0 W/m2
23:52 74.1 °F /  23.4 °C 35.1 °F /  1.7 °C 29.63in /  1003.3hPa Calm     24% 0.00in /  0mm 0.0 W/m2
23:57 73.9 °F /  23.3 °C 34.9 °F /  1.6 °C 29.63in /  1003.3hPa Calm   1.0mph /  1.6km/h 24% 0.00in /  0mm 0.0 W/m2
Olympia, Windhoek, Namibia
Compliments of Weather Underground - 3.25 mb